sensor_id;sensor_type;location;lat;lon;timestamp;pressure;altitude;pressure_sealevel;temperature;humidity
80585;BME280;70137;56.482;9.154;2023-07-31T00:02:16;100325.41;;;12.14;87.84
80585;BME280;70137;56.482;9.154;2023-07-31T00:04:42;100323.00;;;12.13;88.60
80585;BME280;70137;56.482;9.154;2023-07-31T00:07:07;100324.97;;;12.11;88.66
80585;BME280;70137;56.482;9.154;2023-07-31T00:09:33;100320.97;;;12.08;88.65
80585;BME280;70137;56.482;9.154;2023-07-31T00:11:59;100314.78;;;12.09;88.43
80585;BME280;70137;56.482;9.154;2023-07-31T00:14:24;100306.97;;;12.09;88.63
80585;BME280;70137;56.482;9.154;2023-07-31T00:16:50;100322.56;;;12.09;88.41
80585;BME280;70137;56.482;9.154;2023-07-31T00:19:15;100319.34;;;12.07;89.38
80585;BME280;70137;56.482;9.154;2023-07-31T00:21:40;100301.16;;;12.07;88.12
80585;BME280;70137;56.482;9.154;2023-07-31T00:24:06;100298.19;;;12.10;89.27
80585;BME280;70137;56.482;9.154;2023-07-31T00:26:31;100290.22;;;12.12;88.72
80585;BME280;70137;56.482;9.154;2023-07-31T00:28:56;100291.00;;;12.12;89.11
80585;BME280;70137;56.482;9.154;2023-07-31T00:31:22;100285.44;;;12.15;88.49
80585;BME280;70137;56.482;9.154;2023-07-31T00:33:47;100284.81;;;12.13;87.76
80585;BME280;70137;56.482;9.154;2023-07-31T00:36:13;100286.44;;;12.14;88.64
80585;BME280;70137;56.482;9.154;2023-07-31T00:38:38;100286.44;;;12.14;88.34
80585;BME280;70137;56.482;9.154;2023-07-31T00:41:03;100276.03;;;12.14;88.73
80585;BME280;70137;56.482;9.154;2023-07-31T00:43:29;100266.28;;;12.16;88.75
80585;BME280;70137;56.482;9.154;2023-07-31T00:45:54;100264.50;;;12.17;88.91
80585;BME280;70137;56.482;9.154;2023-07-31T00:48:20;100263.50;;;12.18;88.49
80585;BME280;70137;56.482;9.154;2023-07-31T00:50:45;100260.25;;;12.16;87.63
80585;BME280;70137;56.482;9.154;2023-07-31T00:53:11;100255.25;;;12.14;88.13
80585;BME280;70137;56.482;9.154;2023-07-31T00:55:36;100249.06;;;12.15;88.35
80585;BME280;70137;56.482;9.154;2023-07-31T00:58:02;100242.91;;;12.16;88.38
80585;BME280;70137;56.482;9.154;2023-07-31T01:00:27;100257.50;;;12.17;87.12
80585;BME280;70137;56.482;9.154;2023-07-31T01:02:52;100235.91;;;12.17;87.08
80585;BME280;70137;56.482;9.154;2023-07-31T01:05:27;100232.13;;;12.19;87.03
80585;BME280;70137;56.482;9.154;2023-07-31T01:10:59;100238.38;;;12.25;86.60
80585;BME280;70137;56.482;9.154;2023-07-31T01:13:25;100235.75;;;12.25;86.89
80585;BME280;70137;56.482;9.154;2023-07-31T01:15:51;100241.75;;;12.25;87.10
80585;BME280;70137;56.482;9.154;2023-07-31T01:18:17;100239.16;;;12.25;86.94
80585;BME280;70137;56.482;9.154;2023-07-31T01:20:44;100240.81;;;12.26;87.45
80585;BME280;70137;56.482;9.154;2023-07-31T01:28:32;100251.31;;;12.18;86.65
80585;BME280;70137;56.482;9.154;2023-07-31T01:31:02;100241.53;;;12.20;86.85
80585;BME280;70137;56.482;9.154;2023-07-31T01:33:31;100225.75;;;12.22;86.36
80585;BME280;70137;56.482;9.154;2023-07-31T01:35:56;100223.34;;;12.20;87.50
80585;BME280;70137;56.482;9.154;2023-07-31T01:38:22;100219.13;;;12.19;86.61
80585;BME280;70137;56.482;9.154;2023-07-31T01:40:51;100214.13;;;12.18;87.37
80585;BME280;70137;56.482;9.154;2023-07-31T01:43:18;100205.53;;;12.17;86.79
80585;BME280;70137;56.482;9.154;2023-07-31T01:45:43;100208.28;;;12.16;87.08
80585;BME280;70137;56.482;9.154;2023-07-31T01:48:08;100199.09;;;12.13;87.32
80585;BME280;70137;56.482;9.154;2023-07-31T01:50:34;100192.09;;;12.14;87.05
80585;BME280;70137;56.482;9.154;2023-07-31T01:52:59;100187.88;;;12.13;87.30
80585;BME280;70137;56.482;9.154;2023-07-31T01:55:24;100176.09;;;12.10;86.60
80585;BME280;70137;56.482;9.154;2023-07-31T01:57:49;100170.09;;;12.10;87.79
80585;BME280;70137;56.482;9.154;2023-07-31T02:00:15;100158.28;;;12.07;87.78
80585;BME280;70137;56.482;9.154;2023-07-31T02:02:40;100141.88;;;12.07;87.79
80585;BME280;70137;56.482;9.154;2023-07-31T02:05:06;100142.69;;;12.07;87.55
80585;BME280;70137;56.482;9.154;2023-07-31T02:07:31;100152.28;;;12.07;87.27
80585;BME280;70137;56.482;9.154;2023-07-31T02:09:57;100153.44;;;12.04;88.47
80585;BME280;70137;56.482;9.154;2023-07-31T02:12:22;100159.25;;;12.06;87.75
80585;BME280;70137;56.482;9.154;2023-07-31T02:14:47;100154.69;;;12.08;88.60
80585;BME280;70137;56.482;9.154;2023-07-31T02:17:13;100156.28;;;12.09;88.41
80585;BME280;70137;56.482;9.154;2023-07-31T02:19:38;100143.91;;;12.11;88.90
80585;BME280;70137;56.482;9.154;2023-07-31T02:22:03;100145.13;;;12.15;89.29
80585;BME280;70137;56.482;9.154;2023-07-31T02:24:29;100141.38;;;12.18;88.98
80585;BME280;70137;56.482;9.154;2023-07-31T02:26:54;100135.19;;;12.19;88.51
80585;BME280;70137;56.482;9.154;2023-07-31T02:29:20;100136.00;;;12.19;88.82
80585;BME280;70137;56.482;9.154;2023-07-31T02:31:45;100133.19;;;12.21;89.72
80585;BME280;70137;56.482;9.154;2023-07-31T02:34:10;100126.81;;;12.23;89.78
80585;BME280;70137;56.482;9.154;2023-07-31T02:36:36;100124.03;;;12.25;89.43
80585;BME280;70137;56.482;9.154;2023-07-31T02:39:01;100116.06;;;12.26;89.89
80585;BME280;70137;56.482;9.154;2023-07-31T02:41:26;100123.66;;;12.28;89.59
80585;BME280;70137;56.482;9.154;2023-07-31T02:43:52;100117.28;;;12.30;89.02
80585;BME280;70137;56.482;9.154;2023-07-31T02:46:17;100115.28;;;12.32;89.08
80585;BME280;70137;56.482;9.154;2023-07-31T02:48:42;100108.28;;;12.33;88.80
80585;BME280;70137;56.482;9.154;2023-07-31T02:51:08;100113.69;;;12.31;89.34
80585;BME280;70137;56.482;9.154;2023-07-31T02:53:33;100104.88;;;12.32;89.09
80585;BME280;70137;56.482;9.154;2023-07-31T02:55:58;100103.91;;;12.33;90.09
80585;BME280;70137;56.482;9.154;2023-07-31T02:58:23;100106.31;;;12.35;89.91
80585;BME280;70137;56.482;9.154;2023-07-31T03:00:49;100101.94;;;12.36;89.11
80585;BME280;70137;56.482;9.154;2023-07-31T03:03:14;100108.75;;;12.37;90.36
80585;BME280;70137;56.482;9.154;2023-07-31T03:05:39;100105.13;;;12.38;89.32
80585;BME280;70137;56.482;9.154;2023-07-31T03:08:05;100106.13;;;12.37;90.10
80585;BME280;70137;56.482;9.154;2023-07-31T03:10:30;100100.94;;;12.37;90.01
80585;BME280;70137;56.482;9.154;2023-07-31T03:12:56;100100.13;;;12.36;90.52
80585;BME280;70137;56.482;9.154;2023-07-31T03:15:21;100101.94;;;12.36;89.39
80585;BME280;70137;56.482;9.154;2023-07-31T03:17:46;100106.13;;;12.37;90.23
80585;BME280;70137;56.482;9.154;2023-07-31T03:20:12;100106.13;;;12.37;89.60
80585;BME280;70137;56.482;9.154;2023-07-31T03:22:37;100107.13;;;12.36;89.58
80585;BME280;70137;56.482;9.154;2023-07-31T03:25:03;100106.13;;;12.37;89.81
80585;BME280;70137;56.482;9.154;2023-07-31T03:27:29;100097.34;;;12.38;90.22
80585;BME280;70137;56.482;9.154;2023-07-31T03:29:54;100100.13;;;12.36;90.18
80585;BME280;70137;56.482;9.154;2023-07-31T03:32:20;100094.13;;;12.36;89.35
80585;BME280;70137;56.482;9.154;2023-07-31T03:34:45;100097.09;;;12.32;90.49
80585;BME280;70137;56.482;9.154;2023-07-31T03:37:11;100094.69;;;12.31;90.59
80585;BME280;70137;56.482;9.154;2023-07-31T03:39:36;100093.28;;;12.28;90.04
80585;BME280;70137;56.482;9.154;2023-07-31T03:42:02;100099.47;;;12.27;89.60
80585;BME280;70137;56.482;9.154;2023-07-31T03:44:27;100102.06;;;12.27;89.72
80585;BME280;70137;56.482;9.154;2023-07-31T03:46:52;100106.09;;;12.30;89.67
80585;BME280;70137;56.482;9.154;2023-07-31T03:49:18;100099.09;;;12.30;89.78
80585;BME280;70137;56.482;9.154;2023-07-31T03:51:43;100095.28;;;12.33;90.13
80585;BME280;70137;56.482;9.154;2023-07-31T03:54:09;100098.69;;;12.33;90.04
80585;BME280;70137;56.482;9.154;2023-07-31T03:56:35;100095.91;;;12.35;90.43
80585;BME280;70137;56.482;9.154;2023-07-31T03:59:00;100095.09;;;12.35;90.16
80585;BME280;70137;56.482;9.154;2023-07-31T04:01:25;100087.31;;;12.35;89.50
80585;BME280;70137;56.482;9.154;2023-07-31T04:03:51;100084.72;;;12.35;90.26
80585;BME280;70137;56.482;9.154;2023-07-31T04:06:16;100083.91;;;12.34;90.20
80585;BME280;70137;56.482;9.154;2023-07-31T04:08:44;100085.34;;;12.37;90.16
80585;BME280;70137;56.482;9.154;2023-07-31T04:11:10;100080.75;;;12.39;89.87
80585;BME280;70137;56.482;9.154;2023-07-31T04:13:36;100083.34;;;12.39;90.69
80585;BME280;70137;56.482;9.154;2023-07-31T04:16:01;100079.75;;;12.40;89.77
80585;BME280;70137;56.482;9.154;2023-07-31T04:18:27;100079.38;;;12.43;90.44
80585;BME280;70137;56.482;9.154;2023-07-31T04:20:52;100077.38;;;12.45;89.77
80585;BME280;70137;56.482;9.154;2023-07-31T04:23:18;100081.41;;;12.47;90.55
80585;BME280;70137;56.482;9.154;2023-07-31T04:25:43;100087.81;;;12.51;90.07
80585;BME280;70137;56.482;9.154;2023-07-31T04:28:09;100072.03;;;12.53;89.70
80585;BME280;70137;56.482;9.154;2023-07-31T04:30:34;100074.06;;;12.57;90.13
80585;BME280;70137;56.482;9.154;2023-07-31T04:32:59;100067.28;;;12.63;89.89
80585;BME280;70137;56.482;9.154;2023-07-31T04:35:25;100068.50;;;12.67;89.77
80585;BME280;70137;56.482;9.154;2023-07-31T04:37:50;100061.91;;;12.71;89.53
80585;BME280;70137;56.482;9.154;2023-07-31T04:40:16;100062.16;;;12.76;90.30
80585;BME280;70137;56.482;9.154;2023-07-31T04:42:41;100060.75;;;12.80;89.93
80585;BME280;70137;56.482;9.154;2023-07-31T04:45:08;100058.41;;;12.85;89.78
80585;BME280;70137;56.482;9.154;2023-07-31T04:47:34;100060.41;;;12.90;89.86
80585;BME280;70137;56.482;9.154;2023-07-31T04:49:59;100057.22;;;12.95;90.36
80585;BME280;70137;56.482;9.154;2023-07-31T04:52:24;100056.03;;;12.97;90.26
80585;BME280;70137;56.482;9.154;2023-07-31T04:54:50;100047.63;;;13.02;89.81
80585;BME280;70137;56.482;9.154;2023-07-31T04:57:15;100049.06;;;13.04;90.27
80585;BME280;70137;56.482;9.154;2023-07-31T04:59:41;100047.84;;;13.07;89.54
80585;BME280;70137;56.482;9.154;2023-07-31T05:02:08;100052.06;;;13.08;89.60
80585;BME280;70137;56.482;9.154;2023-07-31T05:04:33;100048.84;;;13.06;90.28
80585;BME280;70137;56.482;9.154;2023-07-31T05:06:59;100050.25;;;13.08;89.58
80585;BME280;70137;56.482;9.154;2023-07-31T05:09:24;100053.66;;;13.09;90.37
80585;BME280;70137;56.482;9.154;2023-07-31T05:11:49;100049.25;;;13.09;89.89
80585;BME280;70137;56.482;9.154;2023-07-31T05:14:15;100048.47;;;13.09;90.00
80585;BME280;70137;56.482;9.154;2023-07-31T05:16:41;100043.25;;;13.09;89.75
80585;BME280;70137;56.482;9.154;2023-07-31T05:19:06;100045.84;;;13.09;89.98
80585;BME280;70137;56.482;9.154;2023-07-31T05:21:31;100050.47;;;13.07;89.56
80585;BME280;70137;56.482;9.154;2023-07-31T05:23:57;100046.06;;;13.07;89.24
80585;BME280;70137;56.482;9.154;2023-07-31T05:26:22;100039.66;;;13.10;90.17
80585;BME280;70137;56.482;9.154;2023-07-31T05:28:48;100040.88;;;13.14;89.69
80585;BME280;70137;56.482;9.154;2023-07-31T05:31:13;100041.09;;;13.19;89.42
80585;BME280;70137;56.482;9.154;2023-07-31T05:33:39;100030.13;;;13.24;89.06
80585;BME280;70137;56.482;9.154;2023-07-31T05:36:04;100027.31;;;13.25;89.88
80585;BME280;70137;56.482;9.154;2023-07-31T05:38:29;100030.13;;;13.30;89.38
80585;BME280;70137;56.482;9.154;2023-07-31T05:40:55;100033.13;;;13.40;89.00
80585;BME280;70137;56.482;9.154;2023-07-31T05:43:20;100031.97;;;13.56;88.92
80585;BME280;70137;56.482;9.154;2023-07-31T05:45:46;100033.56;;;13.77;89.26
80585;BME280;70137;56.482;9.154;2023-07-31T05:48:11;100038.56;;;13.98;89.44
80585;BME280;70137;56.482;9.154;2023-07-31T05:50:36;100024.09;;;14.16;89.08
80585;BME280;70137;56.482;9.154;2023-07-31T05:53:06;100024.25;;;14.34;89.27
80585;BME280;70137;56.482;9.154;2023-07-31T05:55:33;100027.44;;;14.43;88.28
80585;BME280;70137;56.482;9.154;2023-07-31T05:57:58;100032.84;;;14.54;87.95
80585;BME280;70137;56.482;9.154;2023-07-31T06:00:23;100022.78;;;14.71;88.16
80585;BME280;70137;56.482;9.154;2023-07-31T06:02:49;100026.72;;;14.87;86.98
80585;BME280;70137;56.482;9.154;2023-07-31T06:05:14;100017.34;;;15.11;87.22
80585;BME280;70137;56.482;9.154;2023-07-31T06:07:40;100026.03;;;15.36;86.06
80585;BME280;70137;56.482;9.154;2023-07-31T06:10:06;100017.47;;;15.54;85.04
80585;BME280;70137;56.482;9.154;2023-07-31T06:12:32;100011.81;;;15.57;84.83
80585;BME280;70137;56.482;9.154;2023-07-31T06:14:58;100017.56;;;15.41;84.28
80585;BME280;70137;56.482;9.154;2023-07-31T06:17:23;100014.81;;;15.29;85.42
80585;BME280;70137;56.482;9.154;2023-07-31T06:19:49;100020.50;;;15.20;85.59
80585;BME280;70137;56.482;9.154;2023-07-31T06:22:14;100022.59;;;15.04;85.22
80585;BME280;70137;56.482;9.154;2023-07-31T06:24:40;100034.28;;;14.95;85.42
80585;BME280;70137;56.482;9.154;2023-07-31T06:27:06;100032.75;;;14.81;84.65
80585;BME280;70137;56.482;9.154;2023-07-31T06:29:32;100031.97;;;14.74;85.42
80585;BME280;70137;56.482;9.154;2023-07-31T06:31:57;100033.00;;;14.73;86.23
80585;BME280;70137;56.482;9.154;2023-07-31T06:34:23;100034.44;;;14.69;85.70
80585;BME280;70137;56.482;9.154;2023-07-31T06:36:48;100034.00;;;14.72;86.26
80585;BME280;70137;56.482;9.154;2023-07-31T06:39:13;100033.56;;;14.75;86.44
80585;BME280;70137;56.482;9.154;2023-07-31T06:41:39;100037.38;;;14.79;86.41
80585;BME280;70137;56.482;9.154;2023-07-31T06:44:04;100037.38;;;14.79;86.09
80585;BME280;70137;56.482;9.154;2023-07-31T06:46:29;100029.56;;;14.79;86.37
80585;BME280;70137;56.482;9.154;2023-07-31T06:48:55;100028.47;;;15.00;86.44
80585;BME280;70137;56.482;9.154;2023-07-31T06:51:20;100041.28;;;15.01;86.90
80585;BME280;70137;56.482;9.154;2023-07-31T06:53:46;100033.94;;;15.23;86.35
80585;BME280;70137;56.482;9.154;2023-07-31T06:56:11;100037.81;;;15.45;85.89
80585;BME280;70137;56.482;9.154;2023-07-31T06:58:37;100035.81;;;15.72;85.44
80585;BME280;70137;56.482;9.154;2023-07-31T07:01:02;100047.78;;;15.87;85.81
80585;BME280;70137;56.482;9.154;2023-07-31T07:03:28;100035.28;;;15.89;85.09
80585;BME280;70137;56.482;9.154;2023-07-31T07:05:53;100035.78;;;15.79;83.52
80585;BME280;70137;56.482;9.154;2023-07-31T07:08:19;100044.09;;;15.69;83.72
80585;BME280;70137;56.482;9.154;2023-07-31T07:10:44;100036.75;;;15.85;84.48
80585;BME280;70137;56.482;9.154;2023-07-31T07:13:09;100029.25;;;16.13;83.58
80585;BME280;70137;56.482;9.154;2023-07-31T07:15:35;100022.91;;;16.21;83.12
80585;BME280;70137;56.482;9.154;2023-07-31T07:18:00;100032.34;;;16.40;82.85
80585;BME280;70137;56.482;9.154;2023-07-31T07:20:25;100026.63;;;16.50;82.96
80585;BME280;70137;56.482;9.154;2023-07-31T07:22:51;100027.63;;;16.85;80.79
80585;BME280;70137;56.482;9.154;2023-07-31T07:25:16;100024.88;;;16.62;81.16
80585;BME280;70137;56.482;9.154;2023-07-31T07:27:42;100017.09;;;16.55;80.81
80585;BME280;70137;56.482;9.154;2023-07-31T07:30:07;100022.50;;;16.60;80.39
80585;BME280;70137;56.482;9.154;2023-07-31T07:32:33;100021.09;;;16.76;80.61
80585;BME280;70137;56.482;9.154;2023-07-31T07:34:58;100021.59;;;16.48;79.08
80585;BME280;70137;56.482;9.154;2023-07-31T07:37:23;100031.88;;;16.31;78.98
80585;BME280;70137;56.482;9.154;2023-07-31T07:39:49;100029.69;;;16.28;80.21
80585;BME280;70137;56.482;9.154;2023-07-31T07:42:14;100024.44;;;16.28;81.17
80585;BME280;70137;56.482;9.154;2023-07-31T07:44:40;100031.59;;;16.21;82.30
80585;BME280;70137;56.482;9.154;2023-07-31T07:47:05;100026.84;;;16.12;82.63
80585;BME280;70137;56.482;9.154;2023-07-31T07:49:34;100032.41;;;15.97;82.85
80585;BME280;70137;56.482;9.154;2023-07-31T07:52:00;100034.13;;;15.85;82.93
80585;BME280;70137;56.482;9.154;2023-07-31T07:54:26;100024.38;;;15.73;83.60
80585;BME280;70137;56.482;9.154;2023-07-31T07:56:51;100032.47;;;15.65;83.28
80585;BME280;70137;56.482;9.154;2023-07-31T07:59:17;100022.69;;;15.54;83.24
80585;BME280;70137;56.482;9.154;2023-07-31T08:01:42;100022.78;;;15.41;83.47
80585;BME280;70137;56.482;9.154;2023-07-31T08:04:07;100031.06;;;15.31;84.35
80585;BME280;70137;56.482;9.154;2023-07-31T08:06:33;100024.69;;;15.27;84.39
80585;BME280;70137;56.482;9.154;2023-07-31T08:08:59;100022.69;;;15.23;84.65
80585;BME280;70137;56.482;9.154;2023-07-31T08:11:24;100027.91;;;15.23;84.80
80585;BME280;70137;56.482;9.154;2023-07-31T08:13:49;100023.25;;;15.31;85.74
80585;BME280;70137;56.482;9.154;2023-07-31T08:16:15;100021.44;;;15.63;85.27
80585;BME280;70137;56.482;9.154;2023-07-31T08:18:40;100016.19;;;16.13;84.07
80585;BME280;70137;56.482;9.154;2023-07-31T08:21:07;100012.53;;;16.14;83.47
80585;BME280;70137;56.482;9.154;2023-07-31T08:23:33;100007.66;;;16.18;83.79
80585;BME280;70137;56.482;9.154;2023-07-31T08:25:58;100013.28;;;16.21;83.35
80585;BME280;70137;56.482;9.154;2023-07-31T08:28:23;100010.22;;;16.24;82.34
80585;BME280;70137;56.482;9.154;2023-07-31T08:30:49;100009.78;;;16.27;82.32
80585;BME280;70137;56.482;9.154;2023-07-31T08:33:15;100010.78;;;16.26;81.89
80585;BME280;70137;56.482;9.154;2023-07-31T08:35:41;100012.91;;;16.36;81.56
80585;BME280;70137;56.482;9.154;2023-07-31T08:38:07;100009.50;;;16.72;82.33
80585;BME280;70137;56.482;9.154;2023-07-31T08:40:36;100011.44;;;17.07;80.78
80585;BME280;70137;56.482;9.154;2023-07-31T08:43:02;100011.50;;;17.19;81.07
80585;BME280;70137;56.482;9.154;2023-07-31T08:45:28;100009.84;;;17.59;79.25
80585;BME280;70137;56.482;9.154;2023-07-31T08:47:55;99999.16;;;17.84;78.30
80585;BME280;70137;56.482;9.154;2023-07-31T08:50:21;100000.19;;;18.07;77.86
80585;BME280;70137;56.482;9.154;2023-07-31T08:52:48;100003.56;;;18.30;75.94
80585;BME280;70137;56.482;9.154;2023-07-31T08:55:14;100010.25;;;18.50;73.68
80585;BME280;70137;56.482;9.154;2023-07-31T08:57:41;100008.28;;;18.69;73.02
80585;BME280;70137;56.482;9.154;2023-07-31T09:00:09;100008.09;;;18.87;74.07
80585;BME280;70137;56.482;9.154;2023-07-31T09:02:41;100005.47;;;19.32;74.32
80585;BME280;70137;56.482;9.154;2023-07-31T09:05:10;100011.84;;;19.53;67.39
80585;BME280;70137;56.482;9.154;2023-07-31T09:07:37;100013.59;;;19.48;70.21
80585;BME280;70137;56.482;9.154;2023-07-31T09:10:03;100024.16;;;19.02;68.65
80585;BME280;70137;56.482;9.154;2023-07-31T09:12:29;100025.91;;;18.33;68.32
80585;BME280;70137;56.482;9.154;2023-07-31T09:14:56;100024.72;;;17.77;69.78
80585;BME280;70137;56.482;9.154;2023-07-31T09:17:48;100032.47;;;17.30;72.56
80585;BME280;70137;56.482;9.154;2023-07-31T09:20:23;100035.91;;;17.01;73.64
80585;BME280;70137;56.482;9.154;2023-07-31T09:22:49;100029.69;;;16.83;74.52
80585;BME280;70137;56.482;9.154;2023-07-31T09:25:26;100032.53;;;16.82;74.62
80585;BME280;70137;56.482;9.154;2023-07-31T09:27:58;100032.47;;;17.30;72.52
80585;BME280;70137;56.482;9.154;2023-07-31T09:30:24;100026.06;;;17.26;73.83
80585;BME280;70137;56.482;9.154;2023-07-31T09:32:51;100025.56;;;17.06;73.86
80585;BME280;70137;56.482;9.154;2023-07-31T09:35:20;100022.66;;;16.96;75.85
80585;BME280;70137;56.482;9.154;2023-07-31T09:37:55;100028.63;;;17.03;76.42
80585;BME280;70137;56.482;9.154;2023-07-31T09:40:52;100019.88;;;17.09;77.21
80585;BME280;70137;56.482;9.154;2023-07-31T09:43:20;100016.00;;;17.53;77.00
80585;BME280;70137;56.482;9.154;2023-07-31T09:45:46;100016.84;;;18.00;76.92
80585;BME280;70137;56.482;9.154;2023-07-31T09:48:13;100015.66;;;18.43;76.03
80585;BME280;70137;56.482;9.154;2023-07-31T09:50:42;100018.25;;;18.95;74.75
80585;BME280;70137;56.482;9.154;2023-07-31T09:53:08;100020.22;;;19.50;74.54
80585;BME280;70137;56.482;9.154;2023-07-31T09:55:34;100017.59;;;19.84;71.01
80585;BME280;70137;56.482;9.154;2023-07-31T09:58:04;100014.63;;;19.97;68.56
80585;BME280;70137;56.482;9.154;2023-07-31T10:00:30;100013.38;;;19.83;70.09
80585;BME280;70137;56.482;9.154;2023-07-31T10:02:58;100010.50;;;19.67;69.58
80585;BME280;70137;56.482;9.154;2023-07-31T10:05:30;100020.09;;;19.57;68.46
80585;BME280;70137;56.482;9.154;2023-07-31T10:07:57;100016.06;;;19.37;68.65
80585;BME280;70137;56.482;9.154;2023-07-31T10:10:22;100020.50;;;19.20;69.99
80585;BME280;70137;56.482;9.154;2023-07-31T10:12:49;100029.06;;;18.99;69.17
80585;BME280;70137;56.482;9.154;2023-07-31T10:15:15;100030.75;;;18.76;70.08
80585;BME280;70137;56.482;9.154;2023-07-31T10:17:41;100031.22;;;19.02;69.85
80585;BME280;70137;56.482;9.154;2023-07-31T10:20:08;100032.06;;;19.36;70.76
80585;BME280;70137;56.482;9.154;2023-07-31T10:22:35;100034.81;;;19.75;70.80
80585;BME280;70137;56.482;9.154;2023-07-31T10:25:02;100022.72;;;20.12;69.09
80585;BME280;70137;56.482;9.154;2023-07-31T10:27:27;100022.50;;;20.36;67.14
80585;BME280;70137;56.482;9.154;2023-07-31T10:29:57;100029.34;;;20.15;69.46
80585;BME280;70137;56.482;9.154;2023-07-31T10:32:23;100032.47;;;19.95;67.08
80585;BME280;70137;56.482;9.154;2023-07-31T10:34:50;100039.84;;;19.76;67.06
80585;BME280;70137;56.482;9.154;2023-07-31T10:39:58;100025.69;;;19.60;66.83
80585;BME280;70137;56.482;9.154;2023-07-31T10:42:36;100019.88;;;19.47;67.35
80585;BME280;70137;56.482;9.154;2023-07-31T10:45:04;100025.31;;;19.40;67.45
80585;BME280;70137;56.482;9.154;2023-07-31T10:47:30;100036.50;;;19.81;66.15
80585;BME280;70137;56.482;9.154;2023-07-31T10:50:18;100033.59;;;19.99;67.01
80585;BME280;70137;56.482;9.154;2023-07-31T10:52:56;100023.50;;;20.29;65.43
80585;BME280;70137;56.482;9.154;2023-07-31T10:57:51;100027.31;;;20.22;66.20
80585;BME280;70137;56.482;9.154;2023-07-31T11:03:05;100026.31;;;20.45;63.64
80585;BME280;70137;56.482;9.154;2023-07-31T11:05:51;100016.81;;;20.88;66.04
80585;BME280;70137;56.482;9.154;2023-07-31T11:08:31;100018.16;;;21.22;64.71
80585;BME280;70137;56.482;9.154;2023-07-31T11:13:32;100029.47;;;20.91;63.63
80585;BME280;70137;56.482;9.154;2023-07-31T11:15:59;100029.41;;;21.34;65.70
80585;BME280;70137;56.482;9.154;2023-07-31T11:18:26;100027.38;;;21.47;62.64
80585;BME280;70137;56.482;9.154;2023-07-31T11:20:52;100027.69;;;21.23;62.21
80585;BME280;70137;56.482;9.154;2023-07-31T11:23:19;100025.94;;;21.07;63.13
80585;BME280;70137;56.482;9.154;2023-07-31T11:25:44;100027.94;;;20.95;62.83
80585;BME280;70137;56.482;9.154;2023-07-31T11:28:14;100024.66;;;21.36;62.20
80585;BME280;70137;56.482;9.154;2023-07-31T11:30:42;100027.81;;;21.70;62.51
80585;BME280;70137;56.482;9.154;2023-07-31T11:33:08;100025.47;;;21.74;60.84
80585;BME280;70137;56.482;9.154;2023-07-31T11:35:45;100033.66;;;22.15;58.69
80585;BME280;70137;56.482;9.154;2023-07-31T11:38:32;100036.19;;;22.52;57.34
80585;BME280;70137;56.482;9.154;2023-07-31T11:40:59;100030.19;;;22.77;56.51
80585;BME280;70137;56.482;9.154;2023-07-31T11:43:26;100026.47;;;22.68;57.44
80585;BME280;70137;56.482;9.154;2023-07-31T11:45:54;100033.47;;;23.14;56.57
80585;BME280;70137;56.482;9.154;2023-07-31T11:48:25;100025.00;;;23.58;54.33
80585;BME280;70137;56.482;9.154;2023-07-31T11:50:53;100019.72;;;23.79;53.42
80585;BME280;70137;56.482;9.154;2023-07-31T11:53:28;100015.75;;;23.51;52.71
80585;BME280;70137;56.482;9.154;2023-07-31T11:55:58;100018.66;;;23.24;50.09
80585;BME280;70137;56.482;9.154;2023-07-31T11:58:24;100018.06;;;22.81;50.21
80585;BME280;70137;56.482;9.154;2023-07-31T12:00:50;100020.84;;;22.44;51.06
80585;BME280;70137;56.482;9.154;2023-07-31T12:03:16;100018.91;;;22.24;53.03
80585;BME280;70137;56.482;9.154;2023-07-31T12:05:42;100017.19;;;22.55;52.16
80585;BME280;70137;56.482;9.154;2023-07-31T12:08:09;100013.19;;;22.47;52.14
80585;BME280;70137;56.482;9.154;2023-07-31T12:10:35;100019.72;;;22.24;49.89
80585;BME280;70137;56.482;9.154;2023-07-31T12:13:03;100013.47;;;22.46;51.02
80585;BME280;70137;56.482;9.154;2023-07-31T12:15:38;100016.75;;;22.78;50.43
80585;BME280;70137;56.482;9.154;2023-07-31T12:18:15;100017.31;;;23.06;52.16
80585;BME280;70137;56.482;9.154;2023-07-31T12:20:45;100016.56;;;23.46;53.04
80585;BME280;70137;56.482;9.154;2023-07-31T12:23:20;100013.91;;;23.56;48.45
80585;BME280;70137;56.482;9.154;2023-07-31T12:28:27;100020.78;;;23.47;48.39
80585;BME280;70137;56.482;9.154;2023-07-31T12:30:57;100027.38;;;23.45;48.31
80585;BME280;70137;56.482;9.154;2023-07-31T12:33:23;100020.78;;;23.47;50.60
80585;BME280;70137;56.482;9.154;2023-07-31T12:35:48;100019.75;;;23.68;48.66
80585;BME280;70137;56.482;9.154;2023-07-31T12:38:14;100024.22;;;23.48;49.07
80585;BME280;70137;56.482;9.154;2023-07-31T12:40:40;100019.47;;;23.24;49.37
80585;BME280;70137;56.482;9.154;2023-07-31T12:43:07;100025.53;;;23.09;50.44
80585;BME280;70137;56.482;9.154;2023-07-31T12:45:34;100015.72;;;22.90;50.61
80585;BME280;70137;56.482;9.154;2023-07-31T12:48:01;100023.84;;;22.73;50.48
80585;BME280;70137;56.482;9.154;2023-07-31T12:50:26;100022.88;;;22.99;52.26
80585;BME280;70137;56.482;9.154;2023-07-31T12:52:56;100012.56;;;22.88;51.48
80585;BME280;70137;56.482;9.154;2023-07-31T12:55:22;100008.81;;;22.83;51.85
80585;BME280;70137;56.482;9.154;2023-07-31T12:57:47;100017.25;;;22.75;51.60
80585;BME280;70137;56.482;9.154;2023-07-31T13:00:13;100008.47;;;22.49;51.91
80585;BME280;70137;56.482;9.154;2023-07-31T13:02:39;100009.69;;;22.26;51.81
80585;BME280;70137;56.482;9.154;2023-07-31T13:05:05;100012.56;;;22.20;52.20
80585;BME280;70137;56.482;9.154;2023-07-31T13:07:30;100008.78;;;22.06;53.47
80585;BME280;70137;56.482;9.154;2023-07-31T13:09:55;100009.81;;;22.05;54.37